CheckWX is a tool to help pilots better visualize weather data.  It is not intended as a substitute for an official pre-flight weather briefing.

23:33:02 UTC

LTAR TAF
Sivas Airport
Sivas, Turkey
TAF LTAR 301940Z 3021/3106 VRB02KT 9999 SCT010 BKN025 TEMPO 3021/3024 -SHSN TEMPO 3101/3105 2000 BCFG BKN005

Mar-30@
21:00 UTC

Mar-30 @ 21:00 UTC

Mar-31@
06:00 UTC

Mar-31 @ 06:00 UTC

TAF LTAR 301940Z 3021/3106 VRB02KT 9999 SCT010 BKN025
Wind
  • Variable at 2 KTS
Cloud Levels
  • Scattered at 1,000' AGL
  • Broken at 2,500' AGL

Mar-30@
21:00 UTC

Mar-30 @ 21:00 UTC

Mar-31@
00:00 UTC

Mar-31 @ 00:00 UTC

TEMPO 3021/3024 -SHSN

Temporary

Temporary Changes expected for less than half the time period

Conditions
Light Showers, Snow
Cloud Levels

Mar-31@
01:00 UTC

Mar-31 @ 01:00 UTC

Mar-31@
05:00 UTC

Mar-31 @ 05:00 UTC

TEMPO 3101/3105 2000 BCFG BKN005

Temporary

Temporary Changes expected for less than half the time period

Conditions
Patches of Fog
Cloud Levels
  • Broken at 500' AGL